Twin Lakes, Idaho
Current Conditions -  °F | °C
As of 10:15 AM on Thursday 18 Dec 2014 (Local Time) from KCOE Reporting Station
Overcast Overcast  
Wind Chill: 35°   Ceiling: 2900
Heat Index: 39°   Visibility: 10mi
Dew Point: 36°   Wind: 6mph
Humidity: 87%   Direction: 190°S
Pressure: 30"   Gusts: NA
Location:  47.8426°N, 116.907°W
Report Text: KCOE 181815Z AUTO 19005KT 10SM FEW022 BKN029 OVC040 04/02 A3000 RMK AO1
Loading
Personal Weather Stations






























Interactive Weather Map New forecast layout! Learn more

10-Day Weather Forecast

Advertisements
Track Severe Weather on mobile